< < Back
Terminal Aerodrome Forecast


Current Version              Previous Versions:   1  2  3  4  5  6  7  8  9  

Terminal Aerodrome Forecast

496
FTUS42 KFFC 010544
TAFAHN
TAF
KAHN 010544Z 0106/0206 00000KT P6SM SCT100
     FM010900 00000KT 6SM BR SCT250
     FM011400 10004KT P6SM FEW040
     FM011600 15005KT P6SM SCT050 PROB30 0119/0123 6SM TSRA BKN040CB
     FM020100 00000KT P6SM SCT100=

Latest METAR

710
SAUS70 KWBC 010700 RRG
MTRAHN
METAR KAHN 010651Z AUTO 06005KT 10SM CLR 21/19 A2997 RMK AO2 RAB10E19
SLP141 P0000 T02060194


USA.gov is the U.S. government's official web portal to all federal, state and local government web resources and services.